sensor_id;sensor_type;location;lat;lon;timestamp;temperature;humidity
64869;DHT22;51349;52.424;10.840;2023-03-23T00:01:54;11.80;99.90
64869;DHT22;51349;52.424;10.840;2023-03-23T00:06:55;11.90;99.90
64869;DHT22;51349;52.424;10.840;2023-03-23T00:11:56;12.00;99.90
64869;DHT22;51349;52.424;10.840;2023-03-23T00:17:05;11.90;99.90
64869;DHT22;51349;52.424;10.840;2023-03-23T00:22:05;12.10;99.90
64869;DHT22;51349;52.424;10.840;2023-03-23T00:27:07;12.20;99.90
64869;DHT22;51349;52.424;10.840;2023-03-23T00:32:09;12.20;99.90
64869;DHT22;51349;52.424;10.840;2023-03-23T00:37:17;12.30;99.90
64869;DHT22;51349;52.424;10.840;2023-03-23T00:42:18;12.30;99.90
64869;DHT22;51349;52.424;10.840;2023-03-23T00:47:19;12.30;99.90
64869;DHT22;51349;52.424;10.840;2023-03-23T00:52:20;12.30;99.90
64869;DHT22;51349;52.424;10.840;2023-03-23T00:57:20;12.30;99.90
64869;DHT22;51349;52.424;10.840;2023-03-23T01:02:24;12.40;99.90
64869;DHT22;51349;52.424;10.840;2023-03-23T01:07:25;12.40;99.90
64869;DHT22;51349;52.424;10.840;2023-03-23T01:12:28;12.30;99.90
64869;DHT22;51349;52.424;10.840;2023-03-23T01:17:29;12.50;99.90
64869;DHT22;51349;52.424;10.840;2023-03-23T01:22:31;12.20;99.90
64869;DHT22;51349;52.424;10.840;2023-03-23T01:27:32;12.00;99.90
64869;DHT22;51349;52.424;10.840;2023-03-23T01:32:33;11.80;99.90
64869;DHT22;51349;52.424;10.840;2023-03-23T01:37:34;11.60;99.90
64869;DHT22;51349;52.424;10.840;2023-03-23T01:42:38;11.40;99.90
64869;DHT22;51349;52.424;10.840;2023-03-23T01:47:38;11.20;99.90
64869;DHT22;51349;52.424;10.840;2023-03-23T01:52:40;11.10;99.90
64869;DHT22;51349;52.424;10.840;2023-03-23T01:57:41;11.10;99.90
64869;DHT22;51349;52.424;10.840;2023-03-23T02:02:44;11.00;99.90
64869;DHT22;51349;52.424;10.840;2023-03-23T02:07:47;10.90;99.90
64869;DHT22;51349;52.424;10.840;2023-03-23T02:12:49;10.90;99.90
64869;DHT22;51349;52.424;10.840;2023-03-23T02:18:03;10.90;99.90
64869;DHT22;51349;52.424;10.840;2023-03-23T02:33:56;10.70;99.90
64869;DHT22;51349;52.424;10.840;2023-03-23T02:39:05;10.70;99.90
64869;DHT22;51349;52.424;10.840;2023-03-23T02:44:07;10.70;99.90
64869;DHT22;51349;52.424;10.840;2023-03-23T02:49:11;10.70;99.90
64869;DHT22;51349;52.424;10.840;2023-03-23T02:54:15;10.70;99.90
64869;DHT22;51349;52.424;10.840;2023-03-23T02:59:17;10.80;99.90
64869;DHT22;51349;52.424;10.840;2023-03-23T03:04:19;10.70;99.90
64869;DHT22;51349;52.424;10.840;2023-03-23T03:09:40;10.80;99.90
64869;DHT22;51349;52.424;10.840;2023-03-23T03:14:50;10.90;99.90
64869;DHT22;51349;52.424;10.840;2023-03-23T03:20:01;11.00;99.90
64869;DHT22;51349;52.424;10.840;2023-03-23T03:25:12;11.10;99.90
64869;DHT22;51349;52.424;10.840;2023-03-23T03:30:15;11.10;99.90
64869;DHT22;51349;52.424;10.840;2023-03-23T03:35:18;11.10;99.90
64869;DHT22;51349;52.424;10.840;2023-03-23T03:40:20;11.30;99.90
64869;DHT22;51349;52.424;10.840;2023-03-23T03:45:22;11.30;99.90
64869;DHT22;51349;52.424;10.840;2023-03-23T03:50:22;11.20;99.90
64869;DHT22;51349;52.424;10.840;2023-03-23T03:55:24;11.10;99.90
64869;DHT22;51349;52.424;10.840;2023-03-23T04:00:24;11.10;99.90
64869;DHT22;51349;52.424;10.840;2023-03-23T04:05:25;11.20;99.90
64869;DHT22;51349;52.424;10.840;2023-03-23T04:10:30;11.20;99.90
64869;DHT22;51349;52.424;10.840;2023-03-23T04:15:31;11.20;99.90
64869;DHT22;51349;52.424;10.840;2023-03-23T04:20:32;11.10;99.90
64869;DHT22;51349;52.424;10.840;2023-03-23T04:25:35;11.10;99.90
64869;DHT22;51349;52.424;10.840;2023-03-23T04:30:36;11.10;99.90
64869;DHT22;51349;52.424;10.840;2023-03-23T04:35:37;11.10;99.90
64869;DHT22;51349;52.424;10.840;2023-03-23T04:40:42;11.00;99.90
64869;DHT22;51349;52.424;10.840;2023-03-23T04:45:43;10.90;99.90
64869;DHT22;51349;52.424;10.840;2023-03-23T04:50:46;10.80;99.90
64869;DHT22;51349;52.424;10.840;2023-03-23T04:55:48;10.70;99.90
64869;DHT22;51349;52.424;10.840;2023-03-23T05:00:52;10.70;99.90
64869;DHT22;51349;52.424;10.840;2023-03-23T05:05:53;10.60;99.90
64869;DHT22;51349;52.424;10.840;2023-03-23T05:10:56;10.60;99.90
64869;DHT22;51349;52.424;10.840;2023-03-23T05:15:57;10.50;99.90
64869;DHT22;51349;52.424;10.840;2023-03-23T05:21:02;10.50;99.90
64869;DHT22;51349;52.424;10.840;2023-03-23T05:26:03;10.50;99.90
64869;DHT22;51349;52.424;10.840;2023-03-23T05:31:04;10.50;99.90
64869;DHT22;51349;52.424;10.840;2023-03-23T05:36:05;10.50;99.90
64869;DHT22;51349;52.424;10.840;2023-03-23T05:41:07;10.60;99.90
64869;DHT22;51349;52.424;10.840;2023-03-23T05:46:08;10.60;99.90
64869;DHT22;51349;52.424;10.840;2023-03-23T05:51:12;10.60;99.90
64869;DHT22;51349;52.424;10.840;2023-03-23T05:56:13;10.50;99.90
64869;DHT22;51349;52.424;10.840;2023-03-23T06:01:14;10.60;99.90
64869;DHT22;51349;52.424;10.840;2023-03-23T06:06:16;10.60;99.90
64869;DHT22;51349;52.424;10.840;2023-03-23T06:11:18;10.60;99.90
64869;DHT22;51349;52.424;10.840;2023-03-23T06:16:19;10.60;99.90
64869;DHT22;51349;52.424;10.840;2023-03-23T06:21:19;10.60;99.90
64869;DHT22;51349;52.424;10.840;2023-03-23T06:26:27;10.70;99.90
64869;DHT22;51349;52.424;10.840;2023-03-23T06:31:28;10.70;99.90
64869;DHT22;51349;52.424;10.840;2023-03-23T06:36:29;10.70;99.90
64869;DHT22;51349;52.424;10.840;2023-03-23T06:41:33;10.80;99.90
64869;DHT22;51349;52.424;10.840;2023-03-23T06:46:34;10.80;99.90
64869;DHT22;51349;52.424;10.840;2023-03-23T06:51:35;10.90;99.90
64869;DHT22;51349;52.424;10.840;2023-03-23T06:56:35;10.90;99.90
64869;DHT22;51349;52.424;10.840;2023-03-23T07:01:36;11.00;99.90
64869;DHT22;51349;52.424;10.840;2023-03-23T07:06:37;11.10;99.90
64869;DHT22;51349;52.424;10.840;2023-03-23T07:11:38;11.20;99.90
64869;DHT22;51349;52.424;10.840;2023-03-23T07:16:39;11.40;99.90
64869;DHT22;51349;52.424;10.840;2023-03-23T07:21:39;11.50;99.90
64869;DHT22;51349;52.424;10.840;2023-03-23T07:26:41;11.60;99.90
64869;DHT22;51349;52.424;10.840;2023-03-23T07:31:42;11.80;99.90
64869;DHT22;51349;52.424;10.840;2023-03-23T07:36:42;12.20;99.90
64869;DHT22;51349;52.424;10.840;2023-03-23T07:41:44;12.20;99.90
64869;DHT22;51349;52.424;10.840;2023-03-23T07:46:44;12.30;99.90
64869;DHT22;51349;52.424;10.840;2023-03-23T07:51:46;12.20;99.90
64869;DHT22;51349;52.424;10.840;2023-03-23T07:56:46;12.20;99.90
64869;DHT22;51349;52.424;10.840;2023-03-23T08:01:47;12.30;99.90
64869;DHT22;51349;52.424;10.840;2023-03-23T08:06:48;12.60;99.90
64869;DHT22;51349;52.424;10.840;2023-03-23T08:11:48;12.90;99.90
64869;DHT22;51349;52.424;10.840;2023-03-23T08:16:49;13.00;99.90
64869;DHT22;51349;52.424;10.840;2023-03-23T08:21:50;13.10;99.90
64869;DHT22;51349;52.424;10.840;2023-03-23T08:26:51;13.20;99.90
64869;DHT22;51349;52.424;10.840;2023-03-23T08:31:51;13.50;99.90
64869;DHT22;51349;52.424;10.840;2023-03-23T08:36:52;13.30;99.90
64869;DHT22;51349;52.424;10.840;2023-03-23T08:41:54;13.40;99.90
64869;DHT22;51349;52.424;10.840;2023-03-23T08:46:54;13.50;99.90
64869;DHT22;51349;52.424;10.840;2023-03-23T08:51:57;13.50;99.90
64869;DHT22;51349;52.424;10.840;2023-03-23T08:57:02;13.60;99.90
64869;DHT22;51349;52.424;10.840;2023-03-23T09:02:03;13.50;99.90
64869;DHT22;51349;52.424;10.840;2023-03-23T09:07:03;13.60;99.90
64869;DHT22;51349;52.424;10.840;2023-03-23T09:12:05;13.60;99.90
64869;DHT22;51349;52.424;10.840;2023-03-23T09:17:06;13.70;99.90
64869;DHT22;51349;52.424;10.840;2023-03-23T09:22:07;13.80;99.90
64869;DHT22;51349;52.424;10.840;2023-03-23T09:27:09;14.00;99.90
64869;DHT22;51349;52.424;10.840;2023-03-23T09:32:09;14.20;99.90
64869;DHT22;51349;52.424;10.840;2023-03-23T09:37:10;14.10;99.90
64869;DHT22;51349;52.424;10.840;2023-03-23T09:42:19;14.20;99.90
64869;DHT22;51349;52.424;10.840;2023-03-23T09:47:49;14.30;99.90
64869;DHT22;51349;52.424;10.840;2023-03-23T09:52:59;14.30;99.90
64869;DHT22;51349;52.424;10.840;2023-03-23T09:58:12;14.20;99.90
64869;DHT22;51349;52.424;10.840;2023-03-23T10:03:18;14.10;99.90
64869;DHT22;51349;52.424;10.840;2023-03-23T10:08:24;14.20;99.90
64869;DHT22;51349;52.424;10.840;2023-03-23T10:18:49;14.30;99.90
64869;DHT22;51349;52.424;10.840;2023-03-23T10:24:02;14.30;99.90
64869;DHT22;51349;52.424;10.840;2023-03-23T10:34:17;14.30;99.90
64869;DHT22;51349;52.424;10.840;2023-03-23T10:39:21;14.20;99.90
64869;DHT22;51349;52.424;10.840;2023-03-23T10:44:24;14.20;99.90
64869;DHT22;51349;52.424;10.840;2023-03-23T10:49:30;14.20;99.90
64869;DHT22;51349;52.424;10.840;2023-03-23T10:54:49;14.40;99.90
64869;DHT22;51349;52.424;10.840;2023-03-23T10:59:51;14.40;99.90
64869;DHT22;51349;52.424;10.840;2023-03-23T11:05:03;14.30;99.90
64869;DHT22;51349;52.424;10.840;2023-03-23T11:10:20;14.30;99.90
64869;DHT22;51349;52.424;10.840;2023-03-23T11:15:33;14.40;99.90
64869;DHT22;51349;52.424;10.840;2023-03-23T11:20:37;14.30;99.90
64869;DHT22;51349;52.424;10.840;2023-03-23T11:31:10;14.70;99.90
64869;DHT22;51349;52.424;10.840;2023-03-23T11:36:12;15.10;99.90
64869;DHT22;51349;52.424;10.840;2023-03-23T11:41:18;15.30;99.90
64869;DHT22;51349;52.424;10.840;2023-03-23T11:46:42;15.20;99.90
64869;DHT22;51349;52.424;10.840;2023-03-23T11:51:49;16.70;99.90
64869;DHT22;51349;52.424;10.840;2023-03-23T11:56:50;16.00;99.90
64869;DHT22;51349;52.424;10.840;2023-03-23T12:01:56;16.90;99.90
64869;DHT22;51349;52.424;10.840;2023-03-23T12:18:09;15.70;99.90
64869;DHT22;51349;52.424;10.840;2023-03-23T12:23:29;16.70;99.90
64869;DHT22;51349;52.424;10.840;2023-03-23T12:34:06;18.00;99.90
64869;DHT22;51349;52.424;10.840;2023-03-23T12:39:31;18.10;99.90
64869;DHT22;51349;52.424;10.840;2023-03-23T12:44:50;17.70;99.90
64869;DHT22;51349;52.424;10.840;2023-03-23T12:55:07;19.30;99.90
64869;DHT22;51349;52.424;10.840;2023-03-23T13:06:20;17.10;99.90
64869;DHT22;51349;52.424;10.840;2023-03-23T13:11:48;17.00;99.90
64869;DHT22;51349;52.424;10.840;2023-03-23T13:16:55;16.50;99.90
64869;DHT22;51349;52.424;10.840;2023-03-23T13:22:08;16.20;99.90
64869;DHT22;51349;52.424;10.840;2023-03-23T13:27:10;16.00;99.90
64869;DHT22;51349;52.424;10.840;2023-03-23T13:32:17;15.00;99.90
64869;DHT22;51349;52.424;10.840;2023-03-23T13:42:22;13.70;99.90
64869;DHT22;51349;52.424;10.840;2023-03-23T13:52:38;14.00;99.90
64869;DHT22;51349;52.424;10.840;2023-03-23T13:57:52;13.80;99.90
64869;DHT22;51349;52.424;10.840;2023-03-23T14:13:39;13.60;99.90
64869;DHT22;51349;52.424;10.840;2023-03-23T14:18:42;13.80;99.90
64869;DHT22;51349;52.424;10.840;2023-03-23T14:23:47;14.10;99.90
64869;DHT22;51349;52.424;10.840;2023-03-23T14:28:51;14.00;99.90
64869;DHT22;51349;52.424;10.840;2023-03-23T14:33:54;13.90;99.90
64869;DHT22;51349;52.424;10.840;2023-03-23T14:44:01;13.60;99.90
64869;DHT22;51349;52.424;10.840;2023-03-23T14:49:04;13.50;99.90
64869;DHT22;51349;52.424;10.840;2023-03-23T14:54:09;13.40;99.90
64869;DHT22;51349;52.424;10.840;2023-03-23T14:59:11;13.30;99.90
64869;DHT22;51349;52.424;10.840;2023-03-23T15:04:20;13.20;99.90
64869;DHT22;51349;52.424;10.840;2023-03-23T15:09:23;13.10;99.90
64869;DHT22;51349;52.424;10.840;2023-03-23T15:14:27;13.00;99.90
64869;DHT22;51349;52.424;10.840;2023-03-23T15:19:37;12.70;99.90
64869;DHT22;51349;52.424;10.840;2023-03-23T15:24:40;12.40;99.90
64869;DHT22;51349;52.424;10.840;2023-03-23T15:30:46;12.30;99.90
64869;DHT22;51349;52.424;10.840;2023-03-23T15:35:37;12.20;99.90
64869;DHT22;51349;52.424;10.840;2023-03-23T15:40:38;12.20;99.90
64869;DHT22;51349;52.424;10.840;2023-03-23T15:45:39;12.20;99.90
64869;DHT22;51349;52.424;10.840;2023-03-23T15:50:51;12.20;99.90
64869;DHT22;51349;52.424;10.840;2023-03-23T15:55:52;12.10;99.90
64869;DHT22;51349;52.424;10.840;2023-03-23T16:00:53;12.00;99.90
64869;DHT22;51349;52.424;10.840;2023-03-23T16:05:55;12.10;99.90
64869;DHT22;51349;52.424;10.840;2023-03-23T16:10:56;12.10;99.90
64869;DHT22;51349;52.424;10.840;2023-03-23T16:15:57;12.00;99.90
64869;DHT22;51349;52.424;10.840;2023-03-23T16:20:58;12.10;99.90
64869;DHT22;51349;52.424;10.840;2023-03-23T16:26:00;12.00;99.90
64869;DHT22;51349;52.424;10.840;2023-03-23T16:31:01;12.10;99.90
64869;DHT22;51349;52.424;10.840;2023-03-23T16:36:02;12.20;99.90
64869;DHT22;51349;52.424;10.840;2023-03-23T16:41:06;12.20;99.90
64869;DHT22;51349;52.424;10.840;2023-03-23T16:46:10;12.20;99.90
64869;DHT22;51349;52.424;10.840;2023-03-23T16:51:11;12.20;99.90
64869;DHT22;51349;52.424;10.840;2023-03-23T16:56:12;12.20;99.90
64869;DHT22;51349;52.424;10.840;2023-03-23T17:01:13;12.10;99.90
64869;DHT22;51349;52.424;10.840;2023-03-23T17:06:13;12.00;99.90
64869;DHT22;51349;52.424;10.840;2023-03-23T17:11:14;11.90;99.90
64869;DHT22;51349;52.424;10.840;2023-03-23T17:16:15;11.80;99.90
64869;DHT22;51349;52.424;10.840;2023-03-23T17:21:16;11.70;99.90
64869;DHT22;51349;52.424;10.840;2023-03-23T17:26:17;11.70;99.90
64869;DHT22;51349;52.424;10.840;2023-03-23T17:31:17;11.50;99.90
64869;DHT22;51349;52.424;10.840;2023-03-23T17:36:18;11.50;99.90
64869;DHT22;51349;52.424;10.840;2023-03-23T17:41:19;11.40;99.90
64869;DHT22;51349;52.424;10.840;2023-03-23T17:46:20;11.40;99.90
64869;DHT22;51349;52.424;10.840;2023-03-23T17:51:21;11.50;99.90
64869;DHT22;51349;52.424;10.840;2023-03-23T17:56:22;11.60;99.90
64869;DHT22;51349;52.424;10.840;2023-03-23T18:01:23;11.60;99.90
64869;DHT22;51349;52.424;10.840;2023-03-23T18:06:24;11.60;99.90
64869;DHT22;51349;52.424;10.840;2023-03-23T18:11:26;11.60;99.90
64869;DHT22;51349;52.424;10.840;2023-03-23T18:16:26;11.60;99.90
64869;DHT22;51349;52.424;10.840;2023-03-23T18:21:27;11.60;99.90
64869;DHT22;51349;52.424;10.840;2023-03-23T18:26:30;11.60;99.90
64869;DHT22;51349;52.424;10.840;2023-03-23T18:31:30;11.60;99.90
64869;DHT22;51349;52.424;10.840;2023-03-23T18:36:32;11.50;99.90
64869;DHT22;51349;52.424;10.840;2023-03-23T18:41:33;11.40;99.90
64869;DHT22;51349;52.424;10.840;2023-03-23T18:46:34;11.40;99.90
64869;DHT22;51349;52.424;10.840;2023-03-23T18:51:36;11.30;99.90
64869;DHT22;51349;52.424;10.840;2023-03-23T18:56:37;11.20;99.90
64869;DHT22;51349;52.424;10.840;2023-03-23T19:01:38;11.10;99.90
64869;DHT22;51349;52.424;10.840;2023-03-23T19:06:38;11.00;99.90
64869;DHT22;51349;52.424;10.840;2023-03-23T19:11:39;11.00;99.90
64869;DHT22;51349;52.424;10.840;2023-03-23T19:16:40;11.00;99.90
64869;DHT22;51349;52.424;10.840;2023-03-23T19:21:40;11.00;99.90
64869;DHT22;51349;52.424;10.840;2023-03-23T19:26:44;11.10;99.90
64869;DHT22;51349;52.424;10.840;2023-03-23T19:31:46;11.10;99.90
64869;DHT22;51349;52.424;10.840;2023-03-23T19:36:47;11.10;99.90
64869;DHT22;51349;52.424;10.840;2023-03-23T19:41:48;11.20;99.90
64869;DHT22;51349;52.424;10.840;2023-03-23T19:46:50;11.20;99.90
64869;DHT22;51349;52.424;10.840;2023-03-23T19:51:51;11.20;99.90
64869;DHT22;51349;52.424;10.840;2023-03-23T19:56:52;11.20;99.90
64869;DHT22;51349;52.424;10.840;2023-03-23T20:01:53;11.20;99.90
64869;DHT22;51349;52.424;10.840;2023-03-23T20:06:54;11.20;99.90
64869;DHT22;51349;52.424;10.840;2023-03-23T20:11:55;11.20;99.90
64869;DHT22;51349;52.424;10.840;2023-03-23T20:16:56;11.10;99.90
64869;DHT22;51349;52.424;10.840;2023-03-23T20:21:56;11.20;99.90
64869;DHT22;51349;52.424;10.840;2023-03-23T20:26:57;11.10;99.90
64869;DHT22;51349;52.424;10.840;2023-03-23T20:32:00;11.00;99.90
64869;DHT22;51349;52.424;10.840;2023-03-23T20:37:02;10.90;99.90
64869;DHT22;51349;52.424;10.840;2023-03-23T20:42:02;10.80;99.90
64869;DHT22;51349;52.424;10.840;2023-03-23T20:47:06;10.70;99.90
64869;DHT22;51349;52.424;10.840;2023-03-23T20:52:07;10.70;99.90
64869;DHT22;51349;52.424;10.840;2023-03-23T20:57:11;10.60;99.90
64869;DHT22;51349;52.424;10.840;2023-03-23T21:02:14;10.70;99.90
64869;DHT22;51349;52.424;10.840;2023-03-23T21:07:15;10.70;99.90
64869;DHT22;51349;52.424;10.840;2023-03-23T21:12:17;10.70;99.90
64869;DHT22;51349;52.424;10.840;2023-03-23T21:17:18;10.70;99.90
64869;DHT22;51349;52.424;10.840;2023-03-23T21:22:18;10.70;99.90
64869;DHT22;51349;52.424;10.840;2023-03-23T21:27:19;10.70;99.90
64869;DHT22;51349;52.424;10.840;2023-03-23T21:32:20;10.70;99.90
64869;DHT22;51349;52.424;10.840;2023-03-23T21:37:21;10.60;99.90
64869;DHT22;51349;52.424;10.840;2023-03-23T21:42:22;10.60;99.90
64869;DHT22;51349;52.424;10.840;2023-03-23T21:47:30;10.60;99.90
64869;DHT22;51349;52.424;10.840;2023-03-23T21:52:31;10.60;99.90
64869;DHT22;51349;52.424;10.840;2023-03-23T21:57:32;10.50;99.90
64869;DHT22;51349;52.424;10.840;2023-03-23T22:02:33;10.40;99.90
64869;DHT22;51349;52.424;10.840;2023-03-23T22:07:34;10.40;99.90
64869;DHT22;51349;52.424;10.840;2023-03-23T22:12:38;10.40;99.90
64869;DHT22;51349;52.424;10.840;2023-03-23T22:17:39;10.20;99.90
64869;DHT22;51349;52.424;10.840;2023-03-23T22:22:40;10.20;99.90
64869;DHT22;51349;52.424;10.840;2023-03-23T22:27:41;10.20;99.90
64869;DHT22;51349;52.424;10.840;2023-03-23T22:32:42;10.20;99.90
64869;DHT22;51349;52.424;10.840;2023-03-23T22:37:42;10.20;99.90
64869;DHT22;51349;52.424;10.840;2023-03-23T22:42:43;10.30;99.90
64869;DHT22;51349;52.424;10.840;2023-03-23T22:47:44;10.40;99.90
64869;DHT22;51349;52.424;10.840;2023-03-23T22:52:44;10.40;99.90
64869;DHT22;51349;52.424;10.840;2023-03-23T22:57:45;10.40;99.90
64869;DHT22;51349;52.424;10.840;2023-03-23T23:02:46;10.20;99.90
64869;DHT22;51349;52.424;10.840;2023-03-23T23:07:46;10.20;99.90
64869;DHT22;51349;52.424;10.840;2023-03-23T23:12:48;10.20;99.90
64869;DHT22;51349;52.424;10.840;2023-03-23T23:17:48;10.30;99.90
64869;DHT22;51349;52.424;10.840;2023-03-23T23:22:50;10.30;99.90
64869;DHT22;51349;52.424;10.840;2023-03-23T23:27:55;10.20;99.90
64869;DHT22;51349;52.424;10.840;2023-03-23T23:32:57;10.20;99.90
64869;DHT22;51349;52.424;10.840;2023-03-23T23:37:58;10.30;99.90
64869;DHT22;51349;52.424;10.840;2023-03-23T23:42:58;10.40;99.90
64869;DHT22;51349;52.424;10.840;2023-03-23T23:47:59;10.60;99.90
64869;DHT22;51349;52.424;10.840;2023-03-23T23:53:00;10.80;99.90
64869;DHT22;51349;52.424;10.840;2023-03-23T23:58:01;10.90;99.90
